createdAt,value
2022-11-08T00:01:47.368Z,43.84
2022-11-08T00:08:10.460Z,43.93
2022-11-08T00:14:34.836Z,43.99
2022-11-08T00:20:59.138Z,44.31
2022-11-08T00:27:23.487Z,44.19
2022-11-08T00:33:47.703Z,44.14
2022-11-08T00:40:12.085Z,44.40
2022-11-08T00:46:36.490Z,44.53
2022-11-08T00:53:00.800Z,44.62
2022-11-08T00:59:25.216Z,44.65
2022-11-08T01:05:49.564Z,44.58
2022-11-08T01:12:13.942Z,44.75
2022-11-08T01:18:38.398Z,44.86
2022-11-08T01:25:02.754Z,44.91
2022-11-08T01:31:27.214Z,44.84
2022-11-08T01:37:51.488Z,45.01
2022-11-08T01:44:21.684Z,45.07
2022-11-08T01:50:48.536Z,45.43
2022-11-08T01:56:52.649Z,45.39
2022-11-08T02:03:16.941Z,45.59
2022-11-08T02:09:41.270Z,45.69
2022-11-08T02:16:05.677Z,45.79
2022-11-08T02:22:45.279Z,46.00
2022-11-08T02:29:09.547Z,46.05
2022-11-08T02:35:34.031Z,46.16
2022-11-08T02:41:58.410Z,46.19
2022-11-08T02:48:22.845Z,46.36
2022-11-08T02:54:47.234Z,46.14
2022-11-08T03:01:11.811Z,46.23
2022-11-08T03:07:36.142Z,46.54
2022-11-08T03:14:00.469Z,46.34
2022-11-08T03:20:29.597Z,46.32
2022-11-08T03:26:56.967Z,46.46
2022-11-08T03:33:21.243Z,46.57
2022-11-08T03:39:38.162Z,46.52
2022-11-08T03:46:02.530Z,46.81
2022-11-08T03:52:26.865Z,46.71
2022-11-08T03:58:51.051Z,46.85
2022-11-08T04:05:15.538Z,46.74
2022-11-08T04:11:38.396Z,46.79
2022-11-08T04:18:01.257Z,46.97
2022-11-08T04:24:25.609Z,47.10
2022-11-08T04:30:50.138Z,46.85
2022-11-08T04:37:14.430Z,47.01
2022-11-08T04:43:38.842Z,46.91
2022-11-08T04:50:03.207Z,46.94
2022-11-08T04:56:27.600Z,47.18
2022-11-08T05:02:51.175Z,47.14
2022-11-08T05:09:15.578Z,47.17
2022-11-08T05:15:39.820Z,47.20
2022-11-08T05:22:02.775Z,47.25
2022-11-08T05:28:27.308Z,47.08
2022-11-08T05:34:51.598Z,47.19
2022-11-08T05:41:15.957Z,47.34
2022-11-08T05:47:40.455Z,47.46
2022-11-08T05:54:04.770Z,47.26
2022-11-08T06:00:12.016Z,47.13
2022-11-08T06:06:16.008Z,47.10
2022-11-08T06:12:40.315Z,46.64
2022-11-08T06:18:47.922Z,46.18
2022-11-08T06:24:51.869Z,45.84
2022-11-08T06:31:16.356Z,45.77
2022-11-08T06:37:40.779Z,45.35
2022-11-08T06:44:05.212Z,45.12
2022-11-08T06:50:29.512Z,45.07
2022-11-08T06:56:53.813Z,44.97
2022-11-08T07:03:18.379Z,44.81
2022-11-08T07:09:35.626Z,44.70
2022-11-08T07:15:59.995Z,44.64
2022-11-08T07:22:22.895Z,44.30
2022-11-08T07:28:47.287Z,44.09
2022-11-08T07:35:11.695Z,44.16
2022-11-08T07:41:36.346Z,44.38
2022-11-08T07:48:00.724Z,44.42
2022-11-08T07:54:25.025Z,45.08
2022-11-08T08:00:49.466Z,45.46
2022-11-08T08:07:13.843Z,45.91
2022-11-08T08:13:38.121Z,46.23
2022-11-08T08:20:02.701Z,46.10
2022-11-08T08:26:27.412Z,45.96
2022-11-08T08:33:08.452Z,45.95
2022-11-08T08:39:36.128Z,46.01
2022-11-08T08:46:00.533Z,46.02
2022-11-08T08:52:24.963Z,46.02
2022-11-08T09:05:33.645Z,46.25
2022-11-08T09:11:58.037Z,46.03
2022-11-08T09:18:22.586Z,46.04
2022-11-08T09:24:47.190Z,46.24
2022-11-08T09:31:11.669Z,46.25
2022-11-08T09:37:36.094Z,46.20
2022-11-08T09:44:12.196Z,46.44
2022-11-08T09:50:45.106Z,46.39
2022-11-08T09:57:09.406Z,46.35
2022-11-08T10:03:33.709Z,45.71
2022-11-08T10:09:58.042Z,45.55
2022-11-08T10:16:22.448Z,45.56
2022-11-08T10:22:58.656Z,45.27
2022-11-08T10:29:23.049Z,45.09
2022-11-08T10:36:05.895Z,45.15
2022-11-08T10:42:34.717Z,45.14
2022-11-08T10:48:59.136Z,44.94
2022-11-08T10:55:28.155Z,44.83
2022-11-08T11:01:52.670Z,44.98
2022-11-08T11:08:17.353Z,44.57
2022-11-08T11:14:57.186Z,44.77
2022-11-08T11:21:22.191Z,44.57
2022-11-08T11:27:47.306Z,44.35
2022-11-08T11:34:14.673Z,44.39
2022-11-08T11:40:44.963Z,44.32
2022-11-08T11:47:24.445Z,44.32
2022-11-08T11:53:57.465Z,44.11
2022-11-08T12:00:21.816Z,44.03
2022-11-08T12:07:04.968Z,43.67
2022-11-08T12:13:35.954Z,43.05
2022-11-08T12:19:58.832Z,42.22
2022-11-08T12:26:35.434Z,41.42
2022-11-08T12:33:18.181Z,40.82
2022-11-08T12:40:03.863Z,40.54
2022-11-08T12:46:28.528Z,40.23
2022-11-08T12:52:57.737Z,40.10
2022-11-08T12:59:37.571Z,39.64
2022-11-08T13:06:04.786Z,39.55
2022-11-08T13:12:41.090Z,39.34
2022-11-08T13:19:14.719Z,39.12
2022-11-08T13:25:39.124Z,39.16
2022-11-08T13:32:03.532Z,39.37
2022-11-08T13:38:33.736Z,39.28
2022-11-08T13:44:56.222Z,39.85
2022-11-08T13:51:29.905Z,40.14
2022-11-08T13:57:57.505Z,40.43
2022-11-08T14:04:29.748Z,40.77
2022-11-08T14:11:06.179Z,40.88
2022-11-08T14:17:33.351Z,40.94
2022-11-08T14:24:00.650Z,40.82
2022-11-08T14:30:25.007Z,41.10
2022-11-08T14:36:56.294Z,41.35
2022-11-08T14:43:21.078Z,41.64
2022-11-08T14:49:54.615Z,41.54
2022-11-08T14:56:19.181Z,41.86
2022-11-08T15:02:43.460Z,41.99
2022-11-08T15:09:10.371Z,42.00
2022-11-08T15:15:34.752Z,42.24
2022-11-08T15:22:01.951Z,42.39
2022-11-08T15:28:26.239Z,42.41
2022-11-08T15:34:59.609Z,42.66
2022-11-08T15:41:29.555Z,42.78
2022-11-08T15:47:51.993Z,42.67
2022-11-08T15:54:16.279Z,42.93
2022-11-08T16:00:40.319Z,43.22
2022-11-08T16:07:04.734Z,43.25
2022-11-08T16:13:29.236Z,43.25
2022-11-08T16:19:56.328Z,43.43
2022-11-08T16:26:20.603Z,43.37
2022-11-08T16:32:45.026Z,43.39
2022-11-08T16:39:09.328Z,43.55
2022-11-08T16:46:03.081Z,43.43
2022-11-08T16:52:18.038Z,43.54
2022-11-08T16:58:42.326Z,43.60
2022-11-08T17:05:06.643Z,43.59
2022-11-08T17:11:31.072Z,43.34
2022-11-08T17:17:55.361Z,43.19
2022-11-08T17:24:21.936Z,43.56
2022-11-08T17:30:46.960Z,43.22
2022-11-08T17:37:11.379Z,43.45
2022-11-08T17:43:35.811Z,43.65
2022-11-08T17:50:00.242Z,43.45
2022-11-08T17:56:24.378Z,43.54
2022-11-08T18:02:48.812Z,43.20
2022-11-08T18:09:13.343Z,43.09
2022-11-08T18:15:37.633Z,43.25
2022-11-08T18:22:02.007Z,43.52
2022-11-08T18:28:26.375Z,43.56
2022-11-08T18:34:50.788Z,43.76
2022-11-08T18:41:15.108Z,43.62
2022-11-08T18:47:39.392Z,43.91
2022-11-08T18:54:03.691Z,43.81
2022-11-08T19:00:28.224Z,44.04
2022-11-08T19:06:54.826Z,43.86
2022-11-08T19:13:08.733Z,43.87
2022-11-08T19:19:33.085Z,44.06
2022-11-08T19:25:56.444Z,43.88
2022-11-08T19:32:21.112Z,43.97
2022-11-08T19:38:45.626Z,44.20
2022-11-08T19:45:10.007Z,44.24
2022-11-08T19:51:34.341Z,44.49
2022-11-08T19:57:58.614Z,44.73
2022-11-08T20:04:02.853Z,44.64
2022-11-08T20:10:27.118Z,44.52
2022-11-08T20:16:54.110Z,44.60
2022-11-08T20:23:18.660Z,44.38
2022-11-08T20:29:32.147Z,44.35
2022-11-08T20:35:56.555Z,44.18
2022-11-08T20:42:20.832Z,44.16
2022-11-08T20:48:45.157Z,43.77
2022-11-08T20:55:09.474Z,43.81
2022-11-08T21:01:36.587Z,43.77
2022-11-08T21:08:05.573Z,43.55
2022-11-08T21:14:37.996Z,43.33
2022-11-08T21:21:02.496Z,43.29
2022-11-08T21:27:29.704Z,43.29
2022-11-08T21:33:54.157Z,43.16
2022-11-08T21:40:18.489Z,43.06
2022-11-08T21:46:38.927Z,43.01
2022-11-08T21:53:03.313Z,42.90
2022-11-08T21:59:27.619Z,42.93
2022-11-08T22:05:52.045Z,43.06
2022-11-08T22:12:16.990Z,42.97
2022-11-08T22:25:25.572Z,43.09
2022-11-08T22:31:52.737Z,43.24
2022-11-08T22:38:17.385Z,43.40
2022-11-08T22:44:41.900Z,43.50
2022-11-08T22:51:06.432Z,43.63
2022-11-08T22:57:30.799Z,43.48
2022-11-08T23:03:55.223Z,43.49
2022-11-08T23:10:19.647Z,43.61
2022-11-08T23:16:53.433Z,43.60
2022-11-08T23:23:16.597Z,43.81
2022-11-08T23:29:40.021Z,43.88
2022-11-08T23:36:04.393Z,43.84
2022-11-08T23:42:27.258Z,43.97
2022-11-08T23:48:51.664Z,43.95
2022-11-08T23:55:16.025Z,43.96
